Time;durP1;ratioP1;P1;durP2;ratioP2;P2;SDS_P1;SDS_P2;PMS_P1;PMS_P2;Temp;Humidity;BMP_temperature;BMP_pressure;BME280_temperature;BME280_humidity;BME280_pressure;Samples;Min_cycle;Max_cycle;Signal;HPM_P1;HPM_P2
2023/07/02 00:01:52;;;;;;;46.47;25.58;;;26.90;99.90;;;;;;5035665;28;20440;-65
2023/07/02 00:04:19;;;;;;;38.33;24.58;;;27.10;99.90;;;;;;5036409;28;20045;-65
2023/07/02 00:06:51;;;;;;;107.10;83.07;;;27.10;99.90;;;;;;5036461;28;20079;-66
2023/07/02 00:09:17;;;;;;;66.00;48.67;;;27.20;99.90;;;;;;5035524;28;20049;-65
2023/07/02 00:11:46;;;;;;;49.83;30.30;;;27.20;99.90;;;;;;5036215;28;20042;-64
2023/07/02 00:14:14;;;;;;;49.20;32.97;;;27.10;99.90;;;;;;5039618;28;20325;-63
2023/07/02 00:16:44;;;;;;;52.67;32.25;;;27.20;99.90;;;;;;5037787;28;20124;-63
2023/07/02 00:19:14;;;;;;;67.20;47.38;;;27.30;99.90;;;;;;5046775;28;20025;-63
2023/07/02 01:30:13;;;;;;;1999.90;999.90;;;26.30;99.90;;;;;;5091609;27;20473;-66
2023/07/02 01:32:40;;;;;;;804.55;720.38;;;26.50;99.90;;;;;;5090999;28;20427;-68
2023/07/02 01:35:08;;;;;;;463.27;414.67;;;26.60;99.90;;;;;;5091033;28;20023;-67
2023/07/02 01:37:37;;;;;;;435.80;391.02;;;26.60;99.90;;;;;;5089511;28;20425;-67
2023/07/02 01:40:06;;;;;;;449.83;402.98;;;26.70;99.90;;;;;;5085187;28;20024;-69
2023/07/02 01:42:33;;;;;;;484.90;432.95;;;26.80;99.90;;;;;;5082041;28;20063;-69
2023/07/02 01:44:59;;;;;;;384.58;346.75;;;27.00;99.90;;;;;;5090570;28;20028;-67
2023/07/02 01:47:26;;;;;;;308.58;279.30;;;27.00;99.90;;;;;;5072040;28;20500;-69
2023/07/02 01:49:52;;;;;;;286.15;258.85;;;27.10;99.90;;;;;;5070350;28;20554;-66
2023/07/02 01:52:22;;;;;;;280.17;253.63;;;27.20;99.90;;;;;;5070313;28;20062;-67
2023/07/02 01:54:48;;;;;;;1073.07;955.97;;;;;;;;;;5070363;28;20016;-67
2023/07/02 01:57:15;;;;;;;893.97;804.38;;;;;;;;;;5077600;28;20017;-67
2023/07/02 01:59:42;;;;;;;1028.28;922.38;;;;;;;;;;5078132;28;20573;-67
2023/07/02 02:02:09;;;;;;;550.67;495.60;;;;;;;;;;5080663;28;20119;-69
2023/07/02 02:04:35;;;;;;;251.88;224.90;;;;;;;;;;5073171;28;20035;-69
2023/07/02 02:07:02;;;;;;;237.57;212.60;;;;;;;;;;5076949;28;20063;-69
2023/07/02 02:09:30;;;;;;;95.32;72.93;;;;;;;;;;5073671;28;20064;-69
2023/07/02 02:11:56;;;;;;;86.35;74.15;;;;;;;;;;5078315;28;20468;-71
2023/07/02 02:14:23;;;;;;;82.53;64.05;;;;;;;;;;5077611;28;20024;-68
2023/07/02 02:16:50;;;;;;;65.78;47.25;;;;;;;;;;5078098;28;20027;-69
2023/07/02 02:19:16;;;;;;;70.82;59.70;;;;;;;;;;5076997;28;20353;-69
2023/07/02 02:21:46;;;;;;;70.82;59.47;;;;;;;;;;5079305;28;20538;-71
2023/07/02 02:24:13;;;;;;;32.05;22.48;;;;;;;;;;5077746;28;20032;-70
2023/07/02 02:26:40;;;;;;;35.85;23.45;;;;;;;;;;5073595;28;21658;-69
2023/07/02 02:29:06;;;;;;;55.45;40.65;;;;;;;;;;5074835;28;20044;-70
2023/07/02 02:31:33;;;;;;;24.92;20.73;;;;;;;;;;5074469;28;20417;-70
2023/07/02 02:34:00;;;;;;;26.75;19.80;;;;;;;;;;5072749;28;20458;-70
2023/07/02 02:36:27;;;;;;;59.50;42.20;;;;;;;;;;5076269;28;20058;-72
2023/07/02 02:38:53;;;;;;;29.98;21.75;;;;;;;;;;5079731;28;20074;-73
2023/07/02 02:41:20;;;;;;;52.80;39.90;;;;;;;;;;5065113;28;20021;-72
2023/07/02 02:43:47;;;;;;;40.08;26.98;;;;;;;;;;5076323;28;20051;-72
2023/07/02 02:46:13;;;;;;;32.80;21.40;;;;;;;;;;5076339;28;20021;-72
2023/07/02 02:48:40;;;;;;;25.50;20.55;;;;;;;;;;5073137;28;20029;-72
2023/07/02 02:51:07;;;;;;;26.85;20.13;;;;;;;;;;5074687;28;20020;-71
2023/07/02 02:53:33;;;;;;;41.00;23.05;;;;;;;;;;5066673;28;20633;-71
2023/07/02 02:56:00;;;;;;;41.22;27.23;;;;;;;;;;5065296;28;20469;-71
2023/07/02 02:58:27;;;;;;;39.25;22.92;;;;;;;;;;5057320;28;20029;-70
2023/07/02 03:00:54;;;;;;;35.25;23.45;;;;;;;;;;5056034;28;20052;-71
2023/07/02 03:03:24;;;;;;;32.08;20.02;;;;;;;;;;5075811;28;20046;-71
2023/07/02 03:05:51;;;;;;;34.97;20.33;;;;;;;;;;5075564;28;20103;-71
2023/07/02 03:08:17;;;;;;;35.13;25.23;;;;;;;;;;5074242;28;20025;-71
2023/07/02 03:10:44;;;;;;;31.70;20.63;;;;;;;;;;5076131;28;20503;-68
2023/07/02 03:13:11;;;;;;;28.77;18.40;;;;;;;;;;5076039;28;20043;-66
2023/07/02 03:15:37;;;;;;;25.65;18.85;;;;;;;;;;5075252;28;20021;-68
2023/07/02 03:18:04;;;;;;;24.83;18.88;;;;;;;;;;5075367;28;20074;-67
2023/07/02 03:20:31;;;;;;;25.30;19.65;;;;;;;;;;5073420;28;20070;-68
2023/07/02 03:22:57;;;;;;;25.08;16.58;;;;;;;;;;5074518;28;20659;-68
2023/07/02 03:25:24;;;;;;;27.27;18.45;;;;;;;;;;5068845;28;20025;-67
2023/07/02 03:27:50;;;;;;;26.23;21.33;;;;;;;;;;5057406;28;20040;-67
2023/07/02 03:30:17;;;;;;;29.90;21.35;;;;;;;;;;5055384;28;20017;-68
2023/07/02 03:32:44;;;;;;;28.70;19.63;;;;;;;;;;5055659;28;20017;-68
2023/07/02 03:35:10;;;;;;;28.90;21.35;;;;;;;;;;5055567;28;20474;-68
2023/07/02 03:37:37;;;;;;;32.38;20.20;;;;;;;;;;5054718;28;20021;-68
2023/07/02 03:40:04;;;;;;;28.98;20.08;;;;;;;;;;5055296;28;20098;-67
2023/07/02 03:42:30;;;;;;;34.67;22.25;;;;;;;;;;5055581;28;20414;-69
2023/07/02 03:44:57;;;;;;;35.83;22.20;;;;;;;;;;5055273;28;20025;-68
2023/07/02 03:47:23;;;;;;;29.13;21.85;;;;;;;;;;5054644;28;20056;-67
2023/07/02 03:49:50;;;;;;;33.40;20.50;;;;;;;;;;5054893;28;20029;-69
2023/07/02 03:52:17;;;;;;;31.00;21.75;;;;;;;;;;5053835;28;20021;-69
2023/07/02 03:54:43;;;;;;;28.38;20.73;;;;;;;;;;5054853;28;20095;-74
2023/07/02 03:57:10;;;;;;;29.90;20.63;;;;;;;;;;5059768;28;20024;-69
2023/07/02 03:59:37;;;;;;;219.07;157.40;;;;;;;;;;5057320;28;20021;-69
2023/07/02 04:02:04;;;;;;;74.63;49.53;;;;;;;;;;5067698;28;20508;-73
2023/07/02 04:04:30;;;;;;;191.80;140.98;;;;;;;;;;5057529;28;20040;-69
2023/07/02 04:06:57;;;;;;;76.18;50.28;;;;;;;;;;5059831;28;20028;-69
2023/07/02 04:09:23;;;;;;;56.10;33.72;;;;;;;;;;5071267;28;20091;-68
2023/07/02 04:11:50;;;;;;;129.50;104.43;;;;;;;;;;5070052;28;20017;-69
2023/07/02 04:14:17;;;;;;;75.40;58.72;;;;;;;;;;5061032;28;20013;-69
2023/07/02 04:16:45;;;;;;;94.88;63.53;;;;;;;;;;5070073;28;20020;-69
2023/07/02 04:19:12;;;;;;;134.15;86.88;;;;;;;;;;5084073;28;20039;-69
2023/07/02 04:21:38;;;;;;;67.85;54.88;;;;;;;;;;5082529;28;20025;-67
2023/07/02 04:24:05;;;;;;;245.30;204.18;;;;;;;;;;5074842;28;20481;-66
2023/07/02 04:26:32;;;;;;;103.93;60.60;;;;;;;;;;5074545;28;20032;-71
2023/07/02 04:28:58;;;;;;;88.65;53.58;;;;;;;;;;5072456;28;20036;-67
2023/07/02 04:31:26;;;;;;;100.35;56.28;;;;;;;;;;5057685;28;20029;-68
2023/07/02 04:33:52;;;;;;;136.10;81.90;;;;;;;;;;5060762;28;20051;-68
2023/07/02 04:36:19;;;;;;;162.65;115.55;;;;;;;;;;5054527;28;20017;-71
2023/07/02 04:38:46;;;;;;;110.20;77.32;;;;;;;;;;5061811;28;20055;-69
2023/07/02 04:41:12;;;;;;;77.63;52.92;;;;;;;;;;5061326;28;20033;-68
2023/07/02 04:43:39;;;;;;;60.45;43.25;;;;;;;;;;5062556;28;20021;-65
2023/07/02 04:46:07;;;;;;;57.28;37.63;;;;;;;;;;5060737;28;20213;-69
2023/07/02 04:48:34;;;;;;;886.80;783.25;;;;;;;;;;5067465;28;20032;-67
2023/07/02 04:51:00;;;;;;;600.17;538.83;;;;;;;;;;5064230;28;20028;-65
2023/07/02 04:53:27;;;;;;;288.95;260.67;;;;;;;;;;5063110;28;20025;-69
2023/07/02 04:55:54;;;;;;;293.42;265.15;;;;;;;;;;5062812;28;20013;-71
2023/07/02 04:58:20;;;;;;;167.68;152.20;;;;;;;;;;5064119;28;20024;-69
2023/07/02 05:00:47;;;;;;;125.78;113.90;;;;;;;;;;5060159;28;20025;-69
2023/07/02 05:03:14;;;;;;;159.05;144.90;;;;;;;;;;5059172;28;20021;-71
2023/07/02 05:05:40;;;;;;;316.20;285.23;;;;;;;;;;5064479;28;20032;-69
2023/07/02 05:08:07;;;;;;;431.15;384.75;;;29.70;99.90;;;;;;5060115;28;20525;-70
2023/07/02 05:10:33;;;;;;;514.33;459.52;;;29.70;99.90;;;;;;5062872;28;20025;-66
2023/07/02 05:13:00;;;;;;;293.63;263.05;;;29.70;99.90;;;;;;5062562;28;20032;-70
2023/07/02 05:15:26;;;;;;;422.42;377.20;;;29.80;99.90;;;;;;5061911;28;20024;-71
2023/07/02 05:17:53;;;;;;;921.42;821.33;;;29.80;99.90;;;;;;5061802;28;20078;-71
2023/07/02 05:20:20;;;;;;;646.00;580.00;;;29.90;99.90;;;;;;5063415;28;20420;-69
2023/07/02 05:22:46;;;;;;;962.70;864.65;;;29.80;99.90;;;;;;5054736;28;20051;-70
2023/07/02 05:25:13;;;;;;;523.42;469.15;;;29.80;99.90;;;;;;5061325;28;20025;-72
2023/07/02 05:27:39;;;;;;;1013.95;913.03;;;29.90;99.90;;;;;;5071859;28;20465;-73
2023/07/02 05:30:07;;;;;;;386.95;347.52;;;29.90;99.90;;;;;;5072174;28;20400;-72
2023/07/02 05:32:35;;;;;;;982.35;884.60;;;29.90;99.90;;;;;;5070954;28;20063;-71
2023/07/02 05:35:02;;;;;;;1408.53;999.90;;;29.90;99.90;;;;;;5073020;28;20097;-72
2023/07/02 05:37:28;;;;;;;466.88;417.55;;;29.90;99.90;;;;;;5073198;28;20048;-74
2023/07/02 05:39:55;;;;;;;518.17;464.67;;;29.90;99.90;;;;;;5073469;28;20495;-72
2023/07/02 05:42:21;;;;;;;537.50;481.92;;;29.90;99.90;;;;;;5071734;28;20099;-71
2023/07/02 05:44:48;;;;;;;543.83;488.60;;;30.00;99.90;;;;;;5072543;28;20028;-74
2023/07/02 05:47:14;;;;;;;568.63;510.25;;;30.00;99.90;;;;;;5072390;28;20055;-72
2023/07/02 05:49:42;;;;;;;1069.32;963.00;;;30.00;99.90;;;;;;5072317;28;20473;-71
2023/07/02 05:52:09;;;;;;;29.23;23.48;;;30.10;99.90;;;;;;5072850;28;20427;-72
2023/07/02 05:54:38;;;;;;;31.02;24.45;;;30.00;99.90;;;;;;5073234;28;20017;-71
2023/07/02 05:57:05;;;;;;;32.58;26.00;;;30.10;99.90;;;;;;5073419;28;20021;-71
2023/07/02 05:59:31;;;;;;;37.67;24.35;;;30.20;99.90;;;;;;5071716;28;20408;-72
2023/07/02 06:01:58;;;;;;;33.50;25.90;;;30.30;99.90;;;;;;5073216;28;20031;-73
2023/07/02 06:04:24;;;;;;;31.50;27.73;;;30.30;99.90;;;;;;5072936;28;20021;-72
2023/07/02 06:06:51;;;;;;;192.88;162.43;;;30.40;99.90;;;;;;5072966;28;20339;-72
2023/07/02 06:09:17;;;;;;;45.90;31.48;;;30.40;99.90;;;;;;5073619;28;20558;-71
2023/07/02 06:11:44;;;;;;;44.17;30.30;;;30.40;99.90;;;;;;5071573;28;20028;-72
2023/07/02 06:14:10;;;;;;;36.78;26.65;;;30.50;99.90;;;;;;5071752;28;20028;-70
2023/07/02 06:16:37;;;;;;;207.60;174.65;;;30.50;99.90;;;;;;5076568;28;20063;-73
2023/07/02 06:19:04;;;;;;;521.50;464.35;;;30.50;99.90;;;;;;5077126;28;20254;-72
2023/07/02 06:21:30;;;;;;;63.72;56.78;;;30.50;99.90;;;;;;5077348;28;20028;-72
2023/07/02 06:23:58;;;;;;;34.20;28.83;;;30.50;99.90;;;;;;5076666;28;20017;-72
2023/07/02 06:26:25;;;;;;;39.17;29.20;;;30.60;99.90;;;;;;5077044;28;20419;-73
2023/07/02 06:28:52;;;;;;;41.78;35.95;;;30.70;99.90;;;;;;5076738;28;20070;-73
2023/07/02 06:31:18;;;;;;;42.45;28.33;;;30.70;99.90;;;;;;5077325;28;20028;-72
2023/07/02 06:33:45;;;;;;;38.95;26.65;;;30.80;99.90;;;;;;5076971;28;20024;-72
2023/07/02 06:36:13;;;;;;;42.03;30.45;;;30.80;99.90;;;;;;5076703;28;20111;-71
2023/07/02 06:38:39;;;;;;;38.15;25.88;;;30.90;99.90;;;;;;5076558;28;20103;-72
2023/07/02 06:41:06;;;;;;;38.97;27.20;;;30.90;99.90;;;;;;5076693;28;20024;-72
2023/07/02 06:43:32;;;;;;;35.08;24.58;;;31.00;99.90;;;;;;5077046;28;20028;-72
2023/07/02 06:45:59;;;;;;;27.15;22.13;;;31.00;99.90;;;;;;5076598;28;20028;-71
2023/07/02 06:48:25;;;;;;;31.13;22.27;;;31.00;99.90;;;;;;5076789;28;20028;-72
2023/07/02 06:50:52;;;;;;;30.58;21.67;;;31.00;99.90;;;;;;5076868;28;20016;-72
2023/07/02 06:53:18;;;;;;;33.17;23.25;;;31.10;99.90;;;;;;5076479;28;20043;-73
2023/07/02 06:55:45;;;;;;;30.55;22.35;;;31.10;99.90;;;;;;5076402;28;20020;-73
2023/07/02 06:58:11;;;;;;;40.40;27.65;;;31.10;99.90;;;;;;5075928;28;20027;-73
2023/07/02 07:00:38;;;;;;;31.88;22.27;;;31.10;99.90;;;;;;5075490;28;20016;-73
2023/07/02 07:03:05;;;;;;;27.98;22.20;;;31.10;99.90;;;;;;5075480;28;20104;-73
2023/07/02 07:05:32;;;;;;;33.53;21.98;;;31.10;99.90;;;;;;5075479;28;20099;-73
2023/07/02 07:08:02;;;;;;;31.38;22.05;;;31.10;99.90;;;;;;5075207;28;20094;-72
2023/07/02 07:10:33;;;;;;;33.65;22.88;;;31.20;99.90;;;;;;5075347;28;20020;-72
2023/07/02 07:13:02;;;;;;;32.22;21.60;;;31.20;99.90;;;;;;5074928;28;20021;-71
2023/07/02 07:15:32;;;;;;;32.95;21.63;;;31.10;99.90;;;;;;5073128;28;20032;-72
2023/07/02 07:17:59;;;;;;;31.40;21.23;;;31.20;99.90;;;;;;5073860;28;20028;-72
2023/07/02 07:20:25;;;;;;;30.45;22.02;;;31.20;99.90;;;;;;5074163;28;20012;-72
2023/07/02 07:22:52;;;;;;;31.80;21.30;;;31.10;99.90;;;;;;5073891;28;20029;-72
2023/07/02 07:25:18;;;;;;;28.40;22.02;;;31.10;99.90;;;;;;5074588;28;20461;-72
2023/07/02 07:27:45;;;;;;;30.17;21.63;;;31.10;99.90;;;;;;5074345;28;20052;-72
2023/07/02 07:30:12;;;;;;;30.98;23.02;;;31.10;99.90;;;;;;5075207;28;20077;-73
2023/07/02 07:32:39;;;;;;;32.88;28.30;;;31.10;99.90;;;;;;5075006;28;20021;-73
2023/07/02 07:35:05;;;;;;;426.80;364.50;;;31.10;99.90;;;;;;5075072;28;20032;-72
2023/07/02 07:37:32;;;;;;;123.70;103.07;;;31.10;99.90;;;;;;5074808;28;20021;-73
2023/07/02 07:39:59;;;;;;;29.10;21.52;;;31.10;99.90;;;;;;5074977;28;20036;-72
2023/07/02 07:42:25;;;;;;;29.45;22.08;;;31.10;99.90;;;;;;5074858;28;20385;-72
2023/07/02 07:44:52;;;;;;;35.05;23.67;;;31.10;99.90;;;;;;5074679;28;20024;-72
2023/07/02 07:47:19;;;;;;;42.88;28.10;;;31.10;99.90;;;;;;5073587;28;20028;-72
2023/07/02 07:49:46;;;;;;;196.93;176.57;;;31.10;99.90;;;;;;5073553;28;20070;-72
2023/07/02 07:52:12;;;;;;;715.92;638.15;;;31.10;99.90;;;;;;5074499;28;20103;-72
2023/07/02 07:54:39;;;;;;;99.50;75.40;;;31.10;99.90;;;;;;5074698;28;20020;-72
2023/07/02 07:57:06;;;;;;;21.83;18.73;;;31.10;99.90;;;;;;5074640;28;20492;-72
2023/07/02 07:59:33;;;;;;;181.77;154.23;;;31.10;99.90;;;;;;5074326;28;20480;-72
2023/07/02 08:01:59;;;;;;;32.22;24.27;;;31.10;99.90;;;;;;5074461;28;20481;-72
2023/07/02 08:04:26;;;;;;;27.50;21.30;;;31.10;99.90;;;;;;5074445;28;20028;-72
2023/07/02 08:06:54;;;;;;;28.20;19.20;;;31.10;99.90;;;;;;5074166;28;20070;-73
2023/07/02 08:09:21;;;;;;;26.30;20.95;;;31.10;99.90;;;;;;5074262;28;20028;-70
2023/07/02 08:11:47;;;;;;;27.35;20.42;;;31.10;99.90;;;;;;5074299;28;20095;-73
2023/07/02 08:14:14;;;;;;;27.73;20.90;;;31.10;99.90;;;;;;5074037;28;20020;-71
2023/07/02 08:16:40;;;;;;;26.63;21.20;;;31.20;99.90;;;;;;5074353;28;20066;-72
2023/07/02 08:19:07;;;;;;;25.02;20.60;;;31.10;99.90;;;;;;5074193;28;20025;-71
2023/07/02 08:21:34;;;;;;;38.60;25.88;;;31.10;99.90;;;;;;5073959;28;20044;-72
2023/07/02 08:24:00;;;;;;;29.13;20.95;;;31.20;99.90;;;;;;5074011;28;20031;-73
2023/07/02 08:26:27;;;;;;;27.25;21.67;;;31.10;99.90;;;;;;5074048;28;20470;-72
2023/07/02 08:28:53;;;;;;;32.00;25.02;;;31.10;99.90;;;;;;5073802;28;20513;-71
2023/07/02 08:31:20;;;;;;;33.00;23.08;;;31.10;99.90;;;;;;5074141;28;20031;-72
2023/07/02 08:33:47;;;;;;;30.45;21.30;;;31.10;99.90;;;;;;5074020;28;20013;-73
2023/07/02 08:36:14;;;;;;;27.05;19.83;;;31.20;99.90;;;;;;5073892;28;20029;-73
2023/07/02 08:38:43;;;;;;;26.67;20.50;;;31.20;99.90;;;;;;5073197;28;20462;-73
2023/07/02 08:41:09;;;;;;;26.92;21.17;;;31.20;99.90;;;;;;5073740;28;20362;-72
2023/07/02 08:43:37;;;;;;;27.27;21.92;;;31.30;99.90;;;;;;5073697;28;20078;-73
2023/07/02 08:46:04;;;;;;;28.00;22.23;;;31.20;99.90;;;;;;5073553;28;20043;-72
2023/07/02 08:48:31;;;;;;;31.70;22.55;;;31.20;99.90;;;;;;5073557;28;20358;-73
2023/07/02 08:50:57;;;;;;;35.15;22.67;;;31.20;99.90;;;;;;5073627;28;20458;-73
2023/07/02 08:53:29;;;;;;;33.05;23.13;;;31.20;99.90;;;;;;5073305;28;20370;-73
2023/07/02 08:55:57;;;;;;;28.95;21.25;;;31.20;99.90;;;;;;5073629;28;20382;-72
2023/07/02 08:58:23;;;;;;;28.15;20.77;;;31.30;99.90;;;;;;5073407;28;20028;-71
2023/07/02 09:01:08;;;;;;;31.08;22.58;;;31.20;99.90;;;;;;5066584;28;20067;-72
2023/07/02 09:03:37;;;;;;;29.88;22.45;;;31.20;99.90;;;;;;5062995;28;20362;-65
2023/07/02 09:06:07;;;;;;;32.60;22.25;;;31.20;99.90;;;;;;5053431;28;20051;-67
2023/07/02 09:08:34;;;;;;;34.35;20.67;;;31.10;99.90;;;;;;5054715;28;20094;-66
2023/07/02 09:11:13;;;;;;;30.02;20.85;;;31.10;99.90;;;;;;5053117;28;20027;-66
2023/07/02 09:13:50;;;;;;;31.60;21.63;;;31.10;99.90;;;;;;5062471;28;20385;-67
2023/07/02 09:16:28;;;;;;;28.52;20.38;;;31.10;99.90;;;;;;5073496;28;20029;-67
2023/07/02 09:18:58;;;;;;;28.38;21.92;;;31.10;99.90;;;;;;5071328;28;20043;-67
2023/07/02 09:21:27;;;;;;;33.35;21.85;;;31.10;99.90;;;;;;5073547;28;20025;-66
2023/07/02 09:23:54;;;;;;;30.42;22.40;;;31.10;99.90;;;;;;5064229;28;20109;-66
2023/07/02 09:26:22;;;;;;;33.72;24.35;;;31.10;99.90;;;;;;5053254;28;20046;-69
2023/07/02 09:28:49;;;;;;;34.00;23.10;;;31.10;99.90;;;;;;5053766;28;20063;-68
2023/07/02 09:31:16;;;;;;;30.83;23.58;;;31.00;99.90;;;;;;5070305;28;20016;-63
2023/07/02 09:33:43;;;;;;;33.92;23.33;;;31.00;99.90;;;;;;5057484;28;20082;-66
2023/07/02 09:36:11;;;;;;;29.55;22.70;;;31.00;99.90;;;;;;5064129;28;20435;-67
2023/07/02 09:38:38;;;;;;;29.52;20.42;;;30.90;99.90;;;;;;5062032;28;20020;-65
2023/07/02 09:41:04;;;;;;;29.13;23.95;;;31.00;99.90;;;;;;5063604;28;20021;-67
2023/07/02 09:43:32;;;;;;;34.20;24.17;;;30.90;99.90;;;;;;5061758;28;20029;-66
2023/07/02 09:45:58;;;;;;;35.65;24.13;;;31.00;99.90;;;;;;5062751;28;20021;-66
2023/07/02 09:48:26;;;;;;;33.88;23.63;;;30.90;99.90;;;;;;5066652;28;20050;-66
2023/07/02 09:50:54;;;;;;;31.77;22.55;;;30.90;99.90;;;;;;5065769;28;20124;-65
2023/07/02 09:53:21;;;;;;;35.65;24.92;;;30.90;99.90;;;;;;5077548;28;20043;-65
2023/07/02 09:55:47;;;;;;;43.45;25.38;;;31.00;99.90;;;;;;5062185;28;20033;-64
2023/07/02 09:58:14;;;;;;;29.48;22.20;;;31.00;99.90;;;;;;5067975;28;20012;-68
2023/07/02 10:00:42;;;;;;;30.40;22.33;;;31.00;99.90;;;;;;5059041;28;20175;-66
2023/07/02 10:03:08;;;;;;;64.15;40.30;;;31.00;99.90;;;;;;5058154;28;20048;-67
2023/07/02 10:05:35;;;;;;;96.70;58.92;;;31.00;99.90;;;;;;5062542;28;20017;-66
2023/07/02 10:08:16;;;;;;;58.50;41.45;;;30.90;99.90;;;;;;5064896;28;20025;-66
2023/07/02 10:10:43;;;;;;;1339.50;710.03;;;30.90;99.90;;;;;;5065125;28;20009;-66
2023/07/02 10:13:10;;;;;;;654.95;411.75;;;30.90;99.90;;;;;;5073670;28;20103;-69
2023/07/02 10:15:37;;;;;;;835.30;482.95;;;30.80;99.90;;;;;;5076702;28;20545;-68
2023/07/02 10:18:04;;;;;;;866.47;516.08;;;30.80;99.90;;;;;;5064437;28;20029;-69
2023/07/02 10:20:36;;;;;;;1607.22;787.55;;;30.80;99.90;;;;;;5059134;28;20024;-72
2023/07/02 10:23:04;;;;;;;1202.75;661.00;;;30.90;99.90;;;;;;5065518;28;20475;-69
2023/07/02 10:25:34;;;;;;;520.72;269.77;;;30.90;99.90;;;;;;5076651;28;20021;-72
2023/07/02 10:28:01;;;;;;;439.13;241.48;;;30.80;99.90;;;;;;5073251;28;20564;-75
2023/07/02 10:30:33;;;;;;;239.55;137.40;;;30.80;99.90;;;;;;5076398;28;20056;-71
2023/07/02 10:33:13;;;;;;;273.13;165.87;;;30.80;99.90;;;;;;5071709;28;20037;-69
2023/07/02 10:35:42;;;;;;;132.18;83.70;;;30.80;99.90;;;;;;5059122;28;20025;-70
2023/07/02 10:38:16;;;;;;;207.60;128.80;;;30.70;99.90;;;;;;5062854;28;20048;-66
2023/07/02 10:40:43;;;;;;;134.43;76.63;;;30.70;99.90;;;;;;5065580;28;20547;-67
2023/07/02 10:43:10;;;;;;;151.68;83.32;;;30.70;99.90;;;;;;5068465;28;20032;-68
2023/07/02 10:45:37;;;;;;;101.40;53.17;;;30.60;99.90;;;;;;5065470;28;20114;-68
2023/07/02 10:48:05;;;;;;;88.65;43.60;;;30.60;99.90;;;;;;5056310;28;20021;-70
2023/07/02 10:50:32;;;;;;;87.10;36.60;;;30.60;99.90;;;;;;5070918;28;20135;-68
2023/07/02 10:52:59;;;;;;;55.28;32.13;;;30.60;99.90;;;;;;5059236;28;20032;-67
2023/07/02 10:55:27;;;;;;;62.35;35.40;;;30.50;99.90;;;;;;5056216;28;20013;-69
2023/07/02 10:58:12;;;;;;;52.22;34.15;;;30.50;99.90;;;;;;5062963;28;20028;-67
2023/07/02 11:00:48;;;;;;;62.15;40.83;;;30.40;99.90;;;;;;5064304;28;20041;-68
2023/07/02 11:03:18;;;;;;;57.05;38.40;;;30.30;99.90;;;;;;5061648;28;20025;-66
2023/07/02 11:05:45;;;;;;;54.42;37.30;;;30.40;99.90;;;;;;5062395;28;20532;-67
2023/07/02 11:08:12;;;;;;;55.53;38.13;;;30.30;99.90;;;;;;5059853;28;20040;-69
2023/07/02 11:10:39;;;;;;;52.00;35.70;;;30.30;99.90;;;;;;5074438;28;20031;-70
2023/07/02 11:13:16;;;;;;;44.20;32.20;;;30.20;99.90;;;;;;5072828;28;20070;-68
2023/07/02 11:15:42;;;;;;;52.15;34.40;;;30.20;99.90;;;;;;5061961;28;20043;-67
2023/07/02 11:18:11;;;;;;;45.65;32.80;;;30.20;99.90;;;;;;5058544;28;20032;-68
2023/07/02 11:20:38;;;;;;;49.42;32.38;;;30.20;99.90;;;;;;5072338;28;20095;-69
2023/07/02 11:23:05;;;;;;;60.90;34.10;;;30.20;99.90;;;;;;5073065;28;20381;-69
2023/07/02 11:25:32;;;;;;;46.30;29.17;;;30.20;99.90;;;;;;5055165;28;20021;-69
2023/07/02 11:28:07;;;;;;;48.03;29.17;;;30.20;99.90;;;;;;5056184;28;20032;-71
2023/07/02 11:30:44;;;;;;;40.33;26.30;;;30.10;99.90;;;;;;5060290;28;20477;-71
2023/07/02 11:33:11;;;;;;;45.95;29.10;;;30.00;99.90;;;;;;5057005;28;20087;-70
2023/07/02 11:35:38;;;;;;;41.05;27.88;;;30.00;99.90;;;;;;5057027;28;20378;-69
2023/07/02 11:38:04;;;;;;;40.47;26.15;;;30.00;99.90;;;;;;5057343;28;20017;-68
2023/07/02 11:40:31;;;;;;;34.15;24.80;;;29.90;99.90;;;;;;5057921;28;20233;-70
2023/07/02 11:42:57;;;;;;;33.22;24.73;;;29.90;99.90;;;;;;5057246;28;20028;-70
2023/07/02 11:45:24;;;;;;;34.40;24.70;;;29.90;99.90;;;;;;5056986;28;20013;-69
2023/07/02 11:47:50;;;;;;;36.60;25.02;;;30.00;99.90;;;;;;5061396;28;20033;-70
2023/07/02 11:50:17;;;;;;;33.92;21.67;;;29.90;99.90;;;;;;5057445;28;20447;-71
2023/07/02 11:52:43;;;;;;;35.25;22.58;;;29.90;99.90;;;;;;5056605;28;20024;-70
2023/07/02 11:55:10;;;;;;;34.08;23.48;;;29.90;99.90;;;;;;5058341;28;20017;-70
2023/07/02 11:57:36;;;;;;;36.00;21.40;;;29.80;99.90;;;;;;5056100;28;20024;-70
2023/07/02 12:00:03;;;;;;;36.42;22.75;;;29.80;99.90;;;;;;5062271;28;20115;-70
2023/07/02 12:02:30;;;;;;;38.85;23.00;;;29.70;99.90;;;;;;5072104;28;20039;-67
2023/07/02 12:04:56;;;;;;;36.92;24.25;;;29.70;99.90;;;;;;5061313;28;20087;-70
2023/07/02 12:07:24;;;;;;;37.17;23.27;;;29.70;99.90;;;;;;5061591;28;20028;-71
2023/07/02 12:09:51;;;;;;;40.67;25.20;;;29.70;99.90;;;;;;5062276;28;20027;-71
2023/07/02 12:12:18;;;;;;;48.58;28.00;;;29.70;99.90;;;;;;5075567;28;20020;-70
2023/07/02 12:14:44;;;;;;;49.50;27.95;;;29.70;99.90;;;;;;5066520;28;20025;-69
2023/07/02 12:17:12;;;;;;;44.72;30.10;;;29.70;99.90;;;;;;5067507;28;20381;-69
2023/07/02 12:19:40;;;;;;;41.53;29.38;;;29.70;99.90;;;;;;5063493;28;20036;-71
2023/07/02 12:22:07;;;;;;;42.67;27.60;;;29.70;99.90;;;;;;5057753;28;20478;-70
2023/07/02 12:24:34;;;;;;;37.80;26.95;;;29.70;99.90;;;;;;5063398;28;20058;-69
2023/07/02 12:27:00;;;;;;;40.75;28.42;;;29.70;99.90;;;;;;5063337;28;20355;-69
2023/07/02 12:29:27;;;;;;;39.78;28.52;;;29.60;99.90;;;;;;5072837;28;20133;-69
2023/07/02 12:31:53;;;;;;;44.50;28.73;;;29.60;99.90;;;;;;5073896;28;20043;-70
2023/07/02 12:34:20;;;;;;;45.33;29.17;;;29.60;99.90;;;;;;5057209;28;20023;-69
2023/07/02 12:36:46;;;;;;;41.45;27.67;;;29.60;99.90;;;;;;5066635;28;20098;-68
2023/07/02 12:39:13;;;;;;;39.63;27.38;;;29.60;99.90;;;;;;5073975;28;20070;-67
2023/07/02 12:41:39;;;;;;;41.85;27.25;;;29.60;99.90;;;;;;5073802;28;20473;-69
2023/07/02 12:44:06;;;;;;;40.72;27.48;;;29.60;99.90;;;;;;5071637;28;20028;-68
2023/07/02 12:46:32;;;;;;;34.05;24.63;;;29.50;99.90;;;;;;5060279;28;20473;-69
2023/07/02 12:48:59;;;;;;;32.72;22.92;;;29.50;99.90;;;;;;5053725;28;20119;-70
2023/07/02 12:51:25;;;;;;;31.67;21.95;;;29.50;99.90;;;;;;5056816;28;20029;-69
2023/07/02 12:53:52;;;;;;;29.15;20.52;;;29.40;99.90;;;;;;5069966;28;20058;-71
2023/07/02 12:56:19;;;;;;;25.05;19.60;;;29.30;99.90;;;;;;5062672;28;20531;-68
2023/07/02 12:58:45;;;;;;;31.52;21.60;;;29.30;99.90;;;;;;5064903;28;20378;-71
2023/07/02 13:01:12;;;;;;;34.33;22.15;;;29.30;99.90;;;;;;5058497;28;20023;-70
2023/07/02 13:03:44;;;;;;;36.63;21.50;;;29.30;99.90;;;;;;5073770;28;20028;-68
2023/07/02 13:06:11;;;;;;;32.72;21.50;;;29.20;99.90;;;;;;5074041;28;20031;-69
2023/07/02 13:08:37;;;;;;;35.33;22.95;;;29.20;99.90;;;;;;5073884;28;20025;-70
2023/07/02 13:11:04;;;;;;;36.90;22.77;;;29.20;99.90;;;;;;5073638;28;20016;-70
2023/07/02 13:13:31;;;;;;;33.03;22.23;;;29.20;99.90;;;;;;5062599;28;20554;-70
2023/07/02 13:15:57;;;;;;;39.03;24.23;;;29.20;99.90;;;;;;5061441;28;20020;-71
2023/07/02 13:18:24;;;;;;;38.83;26.02;;;29.20;99.90;;;;;;5089562;28;20027;-70
2023/07/02 13:20:50;;;;;;;32.83;21.85;;;29.10;99.90;;;;;;5078301;28;20023;-71
2023/07/02 13:23:17;;;;;;;26.17;20.55;;;29.10;99.90;;;;;;5072470;28;20362;-70
2023/07/02 13:25:43;;;;;;;39.55;22.83;;;29.10;99.90;;;;;;5073697;28;20021;-68
2023/07/02 13:28:10;;;;;;;28.60;20.75;;;29.10;99.90;;;;;;5066188;28;20041;-73
2023/07/02 13:30:37;;;;;;;29.33;21.50;;;29.10;99.90;;;;;;5053446;28;20493;-70
2023/07/02 13:33:03;;;;;;;32.78;21.83;;;29.10;99.90;;;;;;5055924;28;20052;-72
2023/07/02 13:35:31;;;;;;;31.55;22.95;;;29.10;99.90;;;;;;5058660;28;20112;-74
2023/07/02 13:37:59;;;;;;;35.15;23.10;;;29.10;99.90;;;;;;5064269;28;20019;-73
2023/07/02 13:40:26;;;;;;;33.05;22.05;;;29.10;99.90;;;;;;5071598;28;20082;-72
2023/07/02 13:42:52;;;;;;;36.58;24.90;;;29.10;99.90;;;;;;5061945;28;20475;-71
2023/07/02 13:45:19;;;;;;;36.72;23.80;;;29.10;99.90;;;;;;5066866;28;20025;-73
2023/07/02 13:47:45;;;;;;;37.72;23.05;;;29.10;99.90;;;;;;5061014;28;20029;-72
2023/07/02 13:50:12;;;;;;;32.85;23.27;;;29.10;99.90;;;;;;5064795;28;20060;-72
2023/07/02 13:52:41;;;;;;;33.67;21.85;;;29.10;99.90;;;;;;5055860;28;20028;-75
2023/07/02 13:55:08;;;;;;;38.58;22.23;;;29.00;99.90;;;;;;5060941;28;20051;-70
2023/07/02 13:57:34;;;;;;;35.22;22.88;;;29.00;99.90;;;;;;5063207;28;20102;-71